Nora Springs, IA (50458)

6:14 AM CDT on August 31, 2015 (GMT -0500)
IEM | | Change Station
CLOSE
Current Station
Personal Weather Station
Location: Mason City, IA
Elevation: 1099 ft
Nearby Weather Stations
Active Advisory: Special Statement

Elev 1099 ft 43.15 °N, 93.17 °W | Updated 15 minutes ago

Fog
Fog
63 °F
Feels Like 63 °F
N
3
Wind Variable Wind from SSE
Gusts 0.0 mph

Today
High -- | Low -- °F
--% Chance of Precip.
Yesterday
High -- | Low -- °F
Precip. -- in
6:34 AM 7:48 PM
Waning Gibbous, 96% visible
Pressure 29.98 in
Visibility 0.2 miles
Clouds
Dew Point 63 °F
Humidity 100%
Rainfall in
Snow Depth Not available.
UV Not available.
Pollen 9.90 out of 12
Air Quality Not available.
Flu Activity Not available.
METAR KMCW 311053Z AUTO 17006KT 1/4SM FG VV001 16/16 A3001 RMK AO2 SLP151 T01610161 $
Pressure 29.98 in
Visibility 0.2 miles
Clouds
Dew Point 63 °F
Humidity 100%
Rainfall in
Snow Depth Not available.
UV Not available.
Pollen 9.90 out of 12
Air Quality Not available.
Flu Activity Not available.
METAR KMCW 311053Z AUTO 17006KT 1/4SM FG VV001 16/16 A3001 RMK AO2 SLP151 T01610161 $

10-Day Weather Forecast

×

Almanac

Astronomy

Aug. 31, 2015 Rise Set
Actual Time
Civil Twilight
Nautical Twilight
Astronomical Twilight
Moon
Length of Visible Light
Length of Day
Tomorrow will be .
, % of the Moon is Illuminated

Today's Extremes

State Highs State Lows

Community

WunderPhotos

Upload Photos

1,851,217 photos uploaded!

WunderBlogs® & News

Nearby

Air Quality

  Air Quality AQ Index Pollutant
Not available.

Snow Depth

Station Depth Elevation

Earthquake Activity

City Distance Mag. Time & Date
Minimum magnitude displayed is 2.5.

Coastal Water Temperatures

Place Temperature

Stations

Nearby Weather Stations

Station Location Temp. Windchill Dew Point Humidity Wind Precip. Elev Updated Type
                   
Special Statement
Statement as of 6:07 AM CDT on August 31, 2015

... Patchy dense fog early this morning...

Watch out for patchy dense fog early this morning. Visibility may
be reduced to 1/4 mile at times which could impact travel. Slow
down and use caution.


Das

607 am CDT Mon Aug 31 2015

... Patchy dense fog early this morning...

Watch out for patchy dense fog early this morning. Visibility may
be reduced to 1/4 mile at times which could impact travel. Slow
down and use caution.


Das